Billstown, Arkansas
Current Conditions -  °F | °C
As of 6:53 PM on Sunday 21 Dec 2014 (Local Time) from KMWT Reporting Station
Overcast Overcast  
Wind Chill: 50°   Ceiling: 3200
Heat Index: 50°   Visibility: 10mi
Dew Point: 41°   Wind: 0mph
Humidity: 71%   Direction: NA
Pressure: 29.88"   Gusts: NA
Location:  34.0925°N, 93.718°W
Report Text: KMWT 220053Z AUTO 00000KT 10SM OVC032 10/05 A2988 RMK AO2 SLP124 T01000050
Loading
Personal Weather Stations






























Interactive Weather Map New forecast layout! Learn more

10-Day Weather Forecast

Advertisements
Track Severe Weather on mobile